createdAt,value
2022-12-07T00:01:08.809Z,14.82
2022-12-07T00:03:37.399Z,15.98
2022-12-07T00:06:06.565Z,17.02
2022-12-07T00:08:34.975Z,15.27
2022-12-07T00:11:05.005Z,15.60
2022-12-07T00:13:34.127Z,16.98
2022-12-07T00:16:03.913Z,17.67
2022-12-07T00:18:31.848Z,19.10
2022-12-07T00:21:03.846Z,15.45
2022-12-07T00:23:31.918Z,18.58
2022-12-07T00:26:07.887Z,15.13
2022-12-07T00:28:35.861Z,18.13
2022-12-07T00:31:06.689Z,18.17
2022-12-07T00:33:35.145Z,15.80
2022-12-07T00:36:04.301Z,16.20
2022-12-07T00:38:34.036Z,13.60
2022-12-07T00:41:04.077Z,16.95
2022-12-07T00:43:33.402Z,14.23
2022-12-07T00:46:01.518Z,16.30
2022-12-07T00:48:29.497Z,15.40
2022-12-07T00:50:57.584Z,15.25
2022-12-07T00:53:25.329Z,13.57
2022-12-07T00:55:53.737Z,12.18
2022-12-07T00:58:21.588Z,14.50
2022-12-07T01:00:50.917Z,14.27
2022-12-07T01:03:19.317Z,15.10
2022-12-07T01:05:54.835Z,14.23
2022-12-07T01:08:23.395Z,13.63
2022-12-07T01:10:51.277Z,13.68
2022-12-07T01:13:18.995Z,15.55
2022-12-07T01:15:47.227Z,14.35
2022-12-07T01:18:16.250Z,14.43
2022-12-07T01:20:43.938Z,14.15
2022-12-07T01:23:11.781Z,15.25
2022-12-07T01:25:39.500Z,11.40
2022-12-07T01:28:07.195Z,15.40
2022-12-07T01:30:35.005Z,12.63
2022-12-07T01:33:02.717Z,15.13
2022-12-07T01:35:31.759Z,13.70
2022-12-07T01:37:59.490Z,12.32
2022-12-07T01:40:27.222Z,13.07
2022-12-07T01:42:54.923Z,11.68
2022-12-07T01:45:41.707Z,11.50
2022-12-07T01:48:12.622Z,13.07
2022-12-07T01:50:42.613Z,10.77
2022-12-07T01:53:12.214Z,11.48
2022-12-07T01:55:44.201Z,11.70
2022-12-07T01:58:14.198Z,11.32
2022-12-07T02:00:43.393Z,10.32
2022-12-07T02:03:16.782Z,10.32
2022-12-07T02:05:46.948Z,10.55
2022-12-07T02:08:15.459Z,9.98
2022-12-07T02:10:43.228Z,9.15
2022-12-07T02:13:14.977Z,8.85
2022-12-07T02:16:12.975Z,8.65
2022-12-07T02:18:54.278Z,10.18
2022-12-07T02:21:32.094Z,9.48
2022-12-07T02:24:25.555Z,11.50
2022-12-07T02:27:29.513Z,8.45
2022-12-07T02:30:02.771Z,10.85
2022-12-07T02:32:40.373Z,10.07
2022-12-07T02:35:11.496Z,11.30
2022-12-07T02:37:44.310Z,11.05
2022-12-07T02:40:19.302Z,9.70
2022-12-07T02:42:51.041Z,11.23
2022-12-07T02:45:24.368Z,10.85
2022-12-07T02:47:54.912Z,9.30
2022-12-07T02:50:23.795Z,9.10
2022-12-07T02:52:51.879Z,9.13
2022-12-07T02:55:25.297Z,8.52
2022-12-07T02:58:10.451Z,9.02
2022-12-07T03:00:50.791Z,7.60
2022-12-07T03:03:19.055Z,7.38
2022-12-07T03:05:59.327Z,8.73
2022-12-07T03:08:33.873Z,8.05
2022-12-07T03:11:05.318Z,7.38
2022-12-07T03:13:40.358Z,7.57
2022-12-07T03:16:14.886Z,6.78
2022-12-07T03:18:48.432Z,7.88
2022-12-07T03:21:19.711Z,9.00
2022-12-07T03:23:52.098Z,7.00
2022-12-07T03:26:21.568Z,8.00
2022-12-07T03:28:54.404Z,8.60
2022-12-07T03:31:25.805Z,7.82
2022-12-07T03:34:01.955Z,7.90
2022-12-07T03:36:35.002Z,7.65
2022-12-07T03:39:09.654Z,7.13
2022-12-07T03:41:44.738Z,8.82
2022-12-07T03:44:13.335Z,7.45
2022-12-07T03:46:46.923Z,9.02
2022-12-07T03:49:21.862Z,11.13
2022-12-07T03:51:56.901Z,8.52
2022-12-07T03:54:28.478Z,8.48
2022-12-07T03:56:57.839Z,8.02
2022-12-07T03:59:26.312Z,7.22
2022-12-07T04:01:57.893Z,9.02
2022-12-07T04:04:27.068Z,8.00
2022-12-07T04:06:54.839Z,7.70
2022-12-07T04:09:22.910Z,7.13
2022-12-07T04:11:50.644Z,7.60
2022-12-07T04:14:21.412Z,6.95
2022-12-07T04:16:50.533Z,9.38
2022-12-07T04:19:22.135Z,7.82
2022-12-07T04:21:49.941Z,6.72
2022-12-07T04:24:18.001Z,7.32
2022-12-07T04:26:47.353Z,5.43
2022-12-07T04:29:16.001Z,7.18
2022-12-07T04:31:44.106Z,6.25
2022-12-07T04:34:13.015Z,7.55
2022-12-07T04:36:42.501Z,6.50
2022-12-07T04:39:19.331Z,6.22
2022-12-07T04:41:47.096Z,6.32
2022-12-07T04:44:16.035Z,6.40
2022-12-07T04:46:44.551Z,6.70
2022-12-07T04:49:13.198Z,7.03
2022-12-07T04:51:42.970Z,6.60
2022-12-07T04:54:10.737Z,6.05
2022-12-07T04:56:38.832Z,6.47
2022-12-07T04:59:07.081Z,7.03
2022-12-07T05:01:35.724Z,7.22
2022-12-07T05:04:03.817Z,7.28
2022-12-07T05:06:31.759Z,6.22
2022-12-07T05:09:00.881Z,6.00
2022-12-07T05:11:40.748Z,7.13
2022-12-07T05:14:11.757Z,6.07
2022-12-07T05:16:40.223Z,6.03
2022-12-07T05:19:08.641Z,6.18
2022-12-07T05:21:36.653Z,6.53
2022-12-07T05:24:06.872Z,6.60
2022-12-07T05:26:35.167Z,5.32
2022-12-07T05:29:02.889Z,5.53
2022-12-07T05:31:30.870Z,5.82
2022-12-07T05:33:58.682Z,5.90
2022-12-07T05:36:26.402Z,5.80
2022-12-07T05:38:54.125Z,5.03
2022-12-07T05:41:40.746Z,6.30
2022-12-07T05:44:08.501Z,5.18
2022-12-07T05:46:36.595Z,4.88
2022-12-07T05:49:04.741Z,4.90
2022-12-07T05:51:32.593Z,4.40
2022-12-07T05:54:00.348Z,5.25
2022-12-07T05:56:29.487Z,5.43
2022-12-07T05:59:15.073Z,4.93
2022-12-07T06:01:43.086Z,5.18
2022-12-07T06:04:10.853Z,4.43
2022-12-07T06:06:38.950Z,4.68
2022-12-07T06:09:07.013Z,5.35
2022-12-07T06:11:53.563Z,5.50
2022-12-07T06:14:21.489Z,4.50
2022-12-07T06:16:50.012Z,4.85
2022-12-07T06:19:18.034Z,5.30
2022-12-07T06:21:45.746Z,5.00
2022-12-07T06:24:14.842Z,5.65
2022-12-07T06:26:44.273Z,5.43
2022-12-07T06:29:13.173Z,5.57
2022-12-07T06:31:41.169Z,6.60
2022-12-07T06:34:12.023Z,5.50
2022-12-07T06:36:40.534Z,4.95
2022-12-07T06:39:09.969Z,5.45
2022-12-07T06:41:38.241Z,5.53
2022-12-07T06:44:07.985Z,5.70
2022-12-07T06:46:36.365Z,6.10
2022-12-07T06:49:04.769Z,5.07
2022-12-07T06:51:32.926Z,5.35
2022-12-07T06:54:00.602Z,4.93
2022-12-07T06:56:28.332Z,5.10
2022-12-07T06:58:55.985Z,4.85
2022-12-07T07:01:25.380Z,5.13
2022-12-07T07:03:53.278Z,4.85
2022-12-07T07:06:21.030Z,4.72
2022-12-07T07:08:48.790Z,4.25
2022-12-07T07:11:16.550Z,4.78
2022-12-07T07:13:44.218Z,4.75
2022-12-07T07:16:12.007Z,4.10
2022-12-07T07:18:41.075Z,4.68
2022-12-07T07:21:08.889Z,4.32
2022-12-07T07:23:36.757Z,4.53
2022-12-07T07:26:04.833Z,4.75
2022-12-07T07:28:32.622Z,4.60
2022-12-07T07:31:00.443Z,4.15
2022-12-07T07:33:28.249Z,4.45
2022-12-07T07:35:57.393Z,4.40
2022-12-07T07:38:25.169Z,4.28
2022-12-07T07:40:52.847Z,5.28
2022-12-07T07:43:20.638Z,4.53
2022-12-07T07:45:48.354Z,4.90
2022-12-07T07:48:16.158Z,4.05
2022-12-07T07:50:43.870Z,4.15
2022-12-07T07:53:12.940Z,4.03
2022-12-07T07:55:40.759Z,4.70
2022-12-07T07:58:08.490Z,4.45
2022-12-07T08:00:36.355Z,4.60
2022-12-07T08:03:04.029Z,4.70
2022-12-07T08:05:31.754Z,4.32
2022-12-07T08:07:59.779Z,4.70
2022-12-07T08:10:29.017Z,4.40
2022-12-07T08:13:15.396Z,4.20
2022-12-07T08:15:45.070Z,4.25
2022-12-07T08:18:13.685Z,4.00
2022-12-07T08:20:42.045Z,3.55
2022-12-07T08:23:13.781Z,3.63
2022-12-07T08:25:42.939Z,3.80
2022-12-07T08:28:10.641Z,3.60
2022-12-07T08:30:38.663Z,3.53
2022-12-07T08:33:06.362Z,3.88
2022-12-07T08:35:35.059Z,4.07
2022-12-07T08:38:03.261Z,3.03
2022-12-07T08:40:31.409Z,3.13
2022-12-07T08:43:00.522Z,3.10
2022-12-07T08:45:28.800Z,3.60
2022-12-07T08:48:00.549Z,3.63
2022-12-07T08:50:28.655Z,3.22
2022-12-07T08:52:58.989Z,2.92
2022-12-07T08:55:27.656Z,3.22
2022-12-07T08:57:55.776Z,2.90
2022-12-07T09:00:25.233Z,2.92
2022-12-07T09:02:52.975Z,2.85
2022-12-07T09:05:20.708Z,2.40
2022-12-07T09:07:53.330Z,2.50
2022-12-07T09:10:21.345Z,2.85
2022-12-07T09:12:49.013Z,2.72
2022-12-07T09:15:16.826Z,2.58
2022-12-07T09:17:47.262Z,2.38
2022-12-07T09:20:15.293Z,1.80
2022-12-07T09:22:43.357Z,2.95
2022-12-07T09:25:11.312Z,2.42
2022-12-07T09:27:39.089Z,2.10
2022-12-07T09:30:08.394Z,2.40
2022-12-07T09:32:36.416Z,2.47
2022-12-07T09:35:05.718Z,2.45
2022-12-07T09:37:36.117Z,2.00
2022-12-07T09:40:05.238Z,2.28
2022-12-07T09:42:37.667Z,2.67
2022-12-07T09:45:09.686Z,2.80
2022-12-07T09:47:37.436Z,3.03
2022-12-07T09:50:14.092Z,2.55
2022-12-07T09:52:43.208Z,2.40
2022-12-07T09:55:14.216Z,2.47
2022-12-07T09:57:42.003Z,2.40
2022-12-07T10:00:15.814Z,2.60
2022-12-07T10:02:46.966Z,2.33
2022-12-07T10:05:24.082Z,2.00
2022-12-07T10:07:52.833Z,2.58
2022-12-07T10:10:26.815Z,2.20
2022-12-07T10:13:00.313Z,2.33
2022-12-07T10:15:46.015Z,2.42
2022-12-07T10:18:23.194Z,2.25
2022-12-07T10:21:03.052Z,3.05
2022-12-07T10:23:31.198Z,2.65
2022-12-07T10:25:58.950Z,2.35
2022-12-07T10:28:41.691Z,2.00
2022-12-07T10:31:19.692Z,2.20
2022-12-07T10:33:52.968Z,2.10
2022-12-07T10:36:26.355Z,2.10
2022-12-07T10:39:01.947Z,2.30
2022-12-07T10:41:29.973Z,2.23
2022-12-07T10:43:59.416Z,2.08
2022-12-07T10:46:55.699Z,2.10
2022-12-07T10:49:44.969Z,2.08
2022-12-07T10:52:22.338Z,2.63
2022-12-07T10:55:04.949Z,2.40
2022-12-07T10:57:45.341Z,2.05
2022-12-07T11:00:23.289Z,2.17
2022-12-07T11:03:19.415Z,1.90
2022-12-07T11:08:31.612Z,1.98
2022-12-07T11:11:08.275Z,1.65
2022-12-07T11:13:46.734Z,2.00
2022-12-07T11:16:34.568Z,1.83
2022-12-07T11:19:28.252Z,2.50
2022-12-07T11:21:59.471Z,1.90
2022-12-07T11:24:37.273Z,1.90
2022-12-07T11:27:19.692Z,1.90
2022-12-07T11:30:12.730Z,2.58
2022-12-07T11:32:56.083Z,2.17
2022-12-07T11:35:33.596Z,1.67
2022-12-07T11:38:05.485Z,1.58
2022-12-07T11:40:37.371Z,1.70
2022-12-07T11:43:15.393Z,2.03
2022-12-07T11:45:46.642Z,1.83
2022-12-07T11:48:21.010Z,1.75
2022-12-07T11:50:52.417Z,2.08
2022-12-07T11:53:25.091Z,1.60
2022-12-07T11:55:58.651Z,1.75
2022-12-07T11:58:42.718Z,2.00
2022-12-07T12:01:34.626Z,1.85
2022-12-07T12:04:09.318Z,1.92
2022-12-07T12:06:37.613Z,1.85
2022-12-07T12:15:36.956Z,1.65
2022-12-07T12:18:17.810Z,1.90
2022-12-07T12:20:49.052Z,1.88
2022-12-07T12:23:21.183Z,1.95
2022-12-07T12:25:52.609Z,1.55
2022-12-07T12:28:31.839Z,1.45
2022-12-07T12:31:16.233Z,1.52
2022-12-07T12:33:49.735Z,1.52
2022-12-07T12:36:27.184Z,1.60
2022-12-07T12:39:14.602Z,1.40
2022-12-07T12:42:10.162Z,1.55
2022-12-07T12:45:07.122Z,1.35
2022-12-07T12:47:45.011Z,1.40
2022-12-07T12:50:25.471Z,1.65
2022-12-07T12:53:16.262Z,1.50
2022-12-07T12:56:22.591Z,1.40
2022-12-07T12:58:50.632Z,1.30
2022-12-07T13:01:44.131Z,1.67
2022-12-07T13:04:28.965Z,2.17
2022-12-07T13:06:57.128Z,1.83
2022-12-07T13:09:27.722Z,1.80
2022-12-07T13:12:03.137Z,1.30
2022-12-07T13:14:56.992Z,1.50
2022-12-07T13:18:02.462Z,1.60
2022-12-07T13:20:51.632Z,1.48
2022-12-07T13:23:24.386Z,1.42
2022-12-07T13:26:06.890Z,1.55
2022-12-07T13:28:39.977Z,1.67
2022-12-07T13:31:30.942Z,1.40
2022-12-07T13:33:58.727Z,1.20
2022-12-07T13:36:29.790Z,1.80
2022-12-07T13:38:59.568Z,1.42
2022-12-07T13:41:30.252Z,1.60
2022-12-07T13:44:07.821Z,1.35
2022-12-07T13:46:49.510Z,1.60
2022-12-07T13:49:23.812Z,1.50
2022-12-07T13:51:53.507Z,1.52
2022-12-07T13:54:23.170Z,1.45
2022-12-07T13:56:53.443Z,1.75
2022-12-07T13:59:23.674Z,1.33
2022-12-07T14:01:53.219Z,2.13
2022-12-07T14:04:32.202Z,1.77
2022-12-07T14:07:02.722Z,1.52
2022-12-07T14:09:31.473Z,1.35
2022-12-07T14:11:59.689Z,1.45
2022-12-07T14:14:36.006Z,1.38
2022-12-07T14:17:16.153Z,1.52
2022-12-07T14:19:48.878Z,1.92
2022-12-07T14:22:32.075Z,1.95
2022-12-07T14:25:02.185Z,1.73
2022-12-07T14:27:35.657Z,1.30
2022-12-07T14:30:03.611Z,1.48
2022-12-07T14:32:32.211Z,1.80
2022-12-07T14:35:02.971Z,1.52
2022-12-07T14:37:32.503Z,1.80
2022-12-07T14:40:00.199Z,1.38
2022-12-07T14:42:30.716Z,1.90
2022-12-07T14:44:59.817Z,2.05
2022-12-07T14:50:18.938Z,2.30
2022-12-07T14:55:40.665Z,1.60
2022-12-07T14:58:08.563Z,2.08
2022-12-07T15:00:36.313Z,1.83
2022-12-07T15:03:04.045Z,1.75
2022-12-07T15:05:32.151Z,2.08
2022-12-07T15:08:01.620Z,1.75
2022-12-07T15:10:32.724Z,1.95
2022-12-07T15:13:21.342Z,1.95
2022-12-07T15:15:50.810Z,1.90
2022-12-07T15:18:19.521Z,1.45
2022-12-07T15:20:48.102Z,1.77
2022-12-07T15:23:17.409Z,1.90
2022-12-07T15:25:46.702Z,2.00
2022-12-07T15:28:14.700Z,1.80
2022-12-07T15:30:44.407Z,1.75
2022-12-07T15:33:12.632Z,2.13
2022-12-07T15:35:40.853Z,1.67
2022-12-07T15:38:09.144Z,1.88
2022-12-07T15:40:38.389Z,1.90
2022-12-07T15:43:06.205Z,2.25
2022-12-07T15:45:32.935Z,1.90
2022-12-07T15:48:27.239Z,2.17
2022-12-07T15:50:48.479Z,2.25
2022-12-07T15:53:16.344Z,1.90
2022-12-07T15:55:45.534Z,1.90
2022-12-07T15:58:13.326Z,2.10
2022-12-07T16:00:41.141Z,1.70
2022-12-07T16:03:09.052Z,2.50
2022-12-07T16:05:36.980Z,2.10
2022-12-07T16:08:05.072Z,2.03
2022-12-07T16:10:33.015Z,2.25
2022-12-07T16:13:02.067Z,1.65
2022-12-07T16:15:29.766Z,0.85
2022-12-07T16:17:57.630Z,0.95
2022-12-07T16:20:25.442Z,1.00
2022-12-07T16:22:54.232Z,1.73
2022-12-07T16:25:22.015Z,1.00
2022-12-07T16:27:49.787Z,1.00
2022-12-07T16:30:19.066Z,1.23
2022-12-07T16:32:46.978Z,1.50
2022-12-07T16:35:15.473Z,1.00
2022-12-07T16:37:44.022Z,1.30
2022-12-07T16:40:13.267Z,2.70
2022-12-07T16:42:41.069Z,4.43
2022-12-07T16:45:09.610Z,2.53
2022-12-07T16:47:40.482Z,3.25
2022-12-07T16:50:09.579Z,3.20
2022-12-07T16:52:37.313Z,3.35
2022-12-07T16:55:05.810Z,3.33
2022-12-07T16:57:33.819Z,3.30
2022-12-07T17:00:01.600Z,3.58
2022-12-07T17:02:29.342Z,2.95
2022-12-07T17:04:58.390Z,3.67
2022-12-07T17:07:26.118Z,4.25
2022-12-07T17:09:54.608Z,3.15
2022-12-07T17:12:22.309Z,3.80
2022-12-07T17:15:07.574Z,3.30
2022-12-07T17:17:35.398Z,3.10
2022-12-07T17:20:04.955Z,3.78
2022-12-07T17:22:32.854Z,2.97
2022-12-07T17:25:00.671Z,3.95
2022-12-07T17:27:28.489Z,3.38
2022-12-07T17:29:56.257Z,3.40
2022-12-07T17:32:24.022Z,3.35
2022-12-07T17:34:51.742Z,3.38
2022-12-07T17:37:20.791Z,3.80
2022-12-07T17:39:48.552Z,3.40
2022-12-07T17:42:34.114Z,3.90
2022-12-07T17:45:02.408Z,3.95
2022-12-07T17:47:30.508Z,3.55
2022-12-07T17:50:03.251Z,3.35
2022-12-07T17:52:57.073Z,3.75
2022-12-07T17:55:24.985Z,4.43
2022-12-07T17:57:53.294Z,3.38
2022-12-07T18:00:21.420Z,3.65
2022-12-07T18:02:49.187Z,3.90
2022-12-07T18:05:17.104Z,4.00
2022-12-07T18:07:46.243Z,3.88
2022-12-07T18:10:13.982Z,4.20
2022-12-07T18:12:41.710Z,3.90
2022-12-07T18:15:10.154Z,4.00
2022-12-07T18:17:38.009Z,4.10
2022-12-07T18:20:07.314Z,3.88
2022-12-07T18:22:36.454Z,5.32
2022-12-07T18:25:06.371Z,5.05
2022-12-07T18:27:34.281Z,5.32
2022-12-07T18:30:01.986Z,4.50
2022-12-07T18:32:30.932Z,4.72
2022-12-07T18:34:59.615Z,4.05
2022-12-07T18:37:27.504Z,3.60
2022-12-07T18:39:55.826Z,3.40
2022-12-07T18:42:25.133Z,3.90
2022-12-07T18:44:52.952Z,4.25
2022-12-07T18:47:20.645Z,3.88
2022-12-07T18:49:48.339Z,3.00
2022-12-07T18:52:16.057Z,3.63
2022-12-07T18:54:43.762Z,4.13
2022-12-07T18:57:11.480Z,4.45
2022-12-07T18:59:50.153Z,4.57
2022-12-07T19:02:19.187Z,4.15
2022-12-07T19:04:47.164Z,4.93
2022-12-07T19:07:15.027Z,4.43
2022-12-07T19:09:42.798Z,5.30
2022-12-07T19:12:13.337Z,6.07
2022-12-07T19:14:42.511Z,5.97
2022-12-07T19:17:12.897Z,6.18
2022-12-07T19:19:42.779Z,6.55
2022-12-07T19:22:12.299Z,6.32
2022-12-07T19:24:40.190Z,6.00
2022-12-07T19:27:09.125Z,7.15
2022-12-07T19:29:36.969Z,6.82
2022-12-07T19:32:08.884Z,7.68
2022-12-07T19:34:37.435Z,6.78
2022-12-07T19:37:05.468Z,7.00
2022-12-07T19:39:33.649Z,7.68
2022-12-07T19:42:01.370Z,7.55
2022-12-07T19:44:29.990Z,7.88
2022-12-07T19:47:04.486Z,7.80
2022-12-07T19:49:35.745Z,7.57
2022-12-07T19:52:06.278Z,7.47
2022-12-07T19:54:35.284Z,7.05
2022-12-07T19:57:04.353Z,8.38
2022-12-07T19:59:32.594Z,8.93
2022-12-07T20:02:00.835Z,8.85
2022-12-07T20:04:32.444Z,8.32
2022-12-07T20:07:02.544Z,8.57
2022-12-07T20:09:30.334Z,8.88
2022-12-07T20:12:15.737Z,8.98
2022-12-07T20:14:43.494Z,9.43
2022-12-07T20:17:11.400Z,9.73
2022-12-07T20:19:39.818Z,9.20
2022-12-07T20:22:09.305Z,9.18
2022-12-07T20:24:37.166Z,10.27
2022-12-07T20:27:06.003Z,9.73
2022-12-07T20:29:34.447Z,8.50
2022-12-07T20:32:02.596Z,9.27
2022-12-07T20:34:30.437Z,9.30
2022-12-07T20:36:58.320Z,8.35
2022-12-07T20:39:27.540Z,9.27
2022-12-07T20:42:12.894Z,8.85
2022-12-07T20:44:40.790Z,8.90
2022-12-07T20:47:08.731Z,8.18
2022-12-07T20:49:36.647Z,7.72
2022-12-07T20:52:04.788Z,8.82
2022-12-07T20:54:34.055Z,10.27
2022-12-07T20:57:01.869Z,8.65
2022-12-07T20:59:29.771Z,9.52
2022-12-07T21:01:57.759Z,10.70
2022-12-07T21:04:25.545Z,10.02
2022-12-07T21:06:53.237Z,9.75
2022-12-07T21:09:26.632Z,10.20
2022-12-07T21:11:55.791Z,11.32
2022-12-07T21:14:24.337Z,9.57
2022-12-07T21:16:52.198Z,10.48
2022-12-07T21:19:20.015Z,10.10
2022-12-07T21:21:47.815Z,11.40
2022-12-07T21:24:15.574Z,10.13
2022-12-07T21:26:43.351Z,10.57
2022-12-07T21:29:12.481Z,9.57
2022-12-07T21:31:40.324Z,10.43
2022-12-07T21:34:08.774Z,9.70
2022-12-07T21:36:36.995Z,8.43
2022-12-07T21:39:05.316Z,9.20
2022-12-07T21:41:34.840Z,10.48
2022-12-07T21:44:03.696Z,10.20
2022-12-07T21:46:34.471Z,10.00
2022-12-07T21:49:04.693Z,9.07
2022-12-07T21:51:33.017Z,10.45
2022-12-07T21:54:01.917Z,10.10
2022-12-07T21:56:31.377Z,10.40
2022-12-07T21:59:01.600Z,9.52
2022-12-07T22:01:34.275Z,9.60
2022-12-07T22:04:03.442Z,8.63
2022-12-07T22:06:31.224Z,9.23
2022-12-07T22:08:59.005Z,8.43
2022-12-07T22:11:26.838Z,8.98
2022-12-07T22:14:11.997Z,8.55
2022-12-07T22:16:40.277Z,8.07
2022-12-07T22:19:09.806Z,9.70
2022-12-07T22:21:37.553Z,9.05
2022-12-07T22:24:06.370Z,8.85
2022-12-07T22:26:34.740Z,8.30
2022-12-07T22:29:03.152Z,9.63
2022-12-07T22:31:31.007Z,8.85
2022-12-07T22:33:58.931Z,9.52
2022-12-07T22:36:29.345Z,9.57
2022-12-07T22:38:57.111Z,9.48
2022-12-07T22:41:27.554Z,9.88
2022-12-07T22:43:55.787Z,9.63
2022-12-07T22:46:24.682Z,9.02
2022-12-07T22:48:52.873Z,9.60
2022-12-07T22:51:23.401Z,9.30
2022-12-07T22:53:53.657Z,8.95
2022-12-07T22:56:21.969Z,8.57
2022-12-07T22:58:50.287Z,9.23
2022-12-07T23:01:19.947Z,8.63
2022-12-07T23:03:48.118Z,8.05
2022-12-07T23:06:17.747Z,9.48
2022-12-07T23:08:46.173Z,9.90
2022-12-07T23:11:37.344Z,10.73
2022-12-07T23:14:10.713Z,10.18
2022-12-07T23:16:38.810Z,9.05
2022-12-07T23:19:06.635Z,9.80
2022-12-07T23:21:34.825Z,9.43
2022-12-07T23:24:03.108Z,9.05
2022-12-07T23:26:32.210Z,9.48
2022-12-07T23:28:59.986Z,9.68
2022-12-07T23:31:28.121Z,9.80
2022-12-07T23:33:56.060Z,9.35
2022-12-07T23:36:25.639Z,8.65
2022-12-07T23:38:54.998Z,10.10
2022-12-07T23:41:24.705Z,11.25
2022-12-07T23:43:54.742Z,10.68
2022-12-07T23:46:24.615Z,9.85
2022-12-07T23:48:54.320Z,10.45
2022-12-07T23:51:23.004Z,11.20
2022-12-07T23:53:52.659Z,10.93
2022-12-07T23:56:22.705Z,10.50
2022-12-07T23:58:51.613Z,11.15
